Chippewa Valley Regional, WI

7:49 AM CDT on September 20, 2014 (GMT -0500)
Rice Lake Regional-Carl's | Change Station
CLOSE
Current Station
Airport
Location: Rice Lake,
Elevation: 1106 ft
Nearby Weather Stations

Elev 1106 ft 45.42 °N, 91.78 °W | Updated 14 minutes ago

Mostly Cloudy
Mostly Cloudy
66 °F
Feels Like 66 °F
N
9
Wind Variable Wind from West
Gusts 16 mph

Today
High -- | Low -- °F
--% Chance of Precip.
Yesterday
High -- | Low -- °F
Precip. -- in
6:50 AM 7:07 PM
Waning Crescent, 12% visible
Pressure 29.72 in
Visibility 10.0 miles
Clouds Mostly Cloudy 1100 ft
Overcast 1700 ft
Dew Point 63 °F
Humidity 89%
Rainfall 0.00 in
Snow Depth Not available.
UV 0 out of 12
Pollen 1.80 out of 12
Air Quality Not available.
Flu Activity Not available.
METAR KRPD 201235Z AUTO 26008G14KT 10SM BKN011 OVC017 19/17 A2972 RMK AO2 T01880170

More Conditions Fewer Conditions

Pressure 29.72 in
Visibility 10.0 miles
Clouds Mostly Cloudy 1100 ft
Overcast 1700 ft
Dew Point 63 °F
Humidity 89%
Rainfall 0.00 in
Snow Depth Not available.
UV 0 out of 12
Pollen 1.80 out of 12
Air Quality Not available.
Flu Activity Not available.
METAR KRPD 201235Z AUTO 26008G14KT 10SM BKN011 OVC017 19/17 A2972 RMK AO2 T01880170

More Conditions Fewer Conditions

10-Day Weather Forecast

Almanac

Astronomy

Sep. 20, 2014 Rise Set
Actual Time 6:50 AM CDT 7:07 PM CDT
Civil Twilight 6:21 AM CDT 7:36 PM CDT
Nautical Twilight 5:46 AM CDT 8:10 PM CDT
Astronomical Twilight 5:11 AM CDT 8:46 PM CDT
Moon 3:23 AM CDT 5:16 PM CDT
Length of Visible Light 13h 15m
Length of Day
12h 16m
Tomorrow will be 3m 5s shorter.
Waning Crescent, 12% of the Moon is Illuminated
Today
Waning Crescent
Sep 24
New
Oct 1
First Quarter
Oct 8
Full
Oct 15
Last Quarter

Today's Extremes

State Highs State Lows

Community

WunderPhotos

Upload Photos

1,754,837 photos uploaded!

Nearby

Snow Depth

Station Depth Elevation
No new snow has been reported.

Earthquake Activity

City Distance Mag. Time & Date
No recent earthquake activity has been reported nearby.
Minimum magnitude displayed is 2.5.

Coastal Water Temperatures

Place Temperature
No Stations Reporting

Nearby Weather Stations